sensor_id;sensor_type;location;lat;lon;timestamp;P1;durP1;ratioP1;P2;durP2;ratioP2
15968;SDS011;8085;53.472;9.794;2023-01-23T00:01:12;4.30;;;2.10;;
15968;SDS011;8085;53.472;9.794;2023-01-23T00:03:41;3.67;;;2.10;;
15968;SDS011;8085;53.472;9.794;2023-01-23T00:06:14;3.20;;;1.77;;
15968;SDS011;8085;53.472;9.794;2023-01-23T00:08:42;2.83;;;1.73;;
15968;SDS011;8085;53.472;9.794;2023-01-23T00:11:11;2.87;;;1.80;;
15968;SDS011;8085;53.472;9.794;2023-01-23T00:13:42;2.43;;;1.67;;
15968;SDS011;8085;53.472;9.794;2023-01-23T00:16:12;3.87;;;1.90;;
15968;SDS011;8085;53.472;9.794;2023-01-23T00:18:40;4.73;;;2.00;;
15968;SDS011;8085;53.472;9.794;2023-01-23T00:21:08;4.57;;;1.90;;
15968;SDS011;8085;53.472;9.794;2023-01-23T00:23:36;4.10;;;1.73;;
15968;SDS011;8085;53.472;9.794;2023-01-23T00:26:03;6.67;;;2.20;;
15968;SDS011;8085;53.472;9.794;2023-01-23T00:28:31;3.43;;;2.30;;
15968;SDS011;8085;53.472;9.794;2023-01-23T00:31:02;2.90;;;1.80;;
15968;SDS011;8085;53.472;9.794;2023-01-23T00:33:31;4.27;;;1.97;;
15968;SDS011;8085;53.472;9.794;2023-01-23T00:35:58;3.40;;;1.60;;
15968;SDS011;8085;53.472;9.794;2023-01-23T00:38:25;2.60;;;1.60;;
15968;SDS011;8085;53.472;9.794;2023-01-23T00:40:52;2.60;;;1.57;;
15968;SDS011;8085;53.472;9.794;2023-01-23T00:43:20;5.70;;;1.73;;
15968;SDS011;8085;53.472;9.794;2023-01-23T00:45:48;4.50;;;1.60;;
15968;SDS011;8085;53.472;9.794;2023-01-23T00:48:16;2.87;;;2.03;;
15968;SDS011;8085;53.472;9.794;2023-01-23T00:50:43;4.10;;;2.20;;
15968;SDS011;8085;53.472;9.794;2023-01-23T00:53:10;4.33;;;1.80;;
15968;SDS011;8085;53.472;9.794;2023-01-23T00:55:38;3.73;;;1.70;;
15968;SDS011;8085;53.472;9.794;2023-01-23T00:58:05;4.67;;;2.10;;
15968;SDS011;8085;53.472;9.794;2023-01-23T01:00:32;3.43;;;1.80;;
15968;SDS011;8085;53.472;9.794;2023-01-23T01:02:59;4.70;;;2.30;;
15968;SDS011;8085;53.472;9.794;2023-01-23T01:05:28;5.93;;;2.07;;
15968;SDS011;8085;53.472;9.794;2023-01-23T01:07:54;6.27;;;2.27;;
15968;SDS011;8085;53.472;9.794;2023-01-23T01:10:21;4.63;;;2.47;;
15968;SDS011;8085;53.472;9.794;2023-01-23T01:12:53;3.20;;;2.07;;
15968;SDS011;8085;53.472;9.794;2023-01-23T01:15:20;5.23;;;2.10;;
15968;SDS011;8085;53.472;9.794;2023-01-23T01:17:47;2.53;;;1.77;;
15968;SDS011;8085;53.472;9.794;2023-01-23T01:20:14;5.10;;;2.37;;
15968;SDS011;8085;53.472;9.794;2023-01-23T01:22:42;3.60;;;1.90;;
15968;SDS011;8085;53.472;9.794;2023-01-23T01:25:09;6.40;;;2.07;;
15968;SDS011;8085;53.472;9.794;2023-01-23T01:27:36;4.17;;;2.13;;
15968;SDS011;8085;53.472;9.794;2023-01-23T01:30:03;4.57;;;2.20;;
15968;SDS011;8085;53.472;9.794;2023-01-23T01:32:30;6.10;;;2.60;;
15968;SDS011;8085;53.472;9.794;2023-01-23T01:35:01;4.63;;;2.20;;
15968;SDS011;8085;53.472;9.794;2023-01-23T01:37:27;4.67;;;2.17;;
15968;SDS011;8085;53.472;9.794;2023-01-23T01:39:58;4.33;;;2.10;;
15968;SDS011;8085;53.472;9.794;2023-01-23T01:42:25;4.10;;;2.00;;
15968;SDS011;8085;53.472;9.794;2023-01-23T01:44:54;5.73;;;2.07;;
15968;SDS011;8085;53.472;9.794;2023-01-23T01:47:23;4.90;;;2.30;;
15968;SDS011;8085;53.472;9.794;2023-01-23T01:49:51;5.23;;;2.03;;
15968;SDS011;8085;53.472;9.794;2023-01-23T01:52:21;4.80;;;2.17;;
15968;SDS011;8085;53.472;9.794;2023-01-23T01:54:49;4.93;;;1.87;;
15968;SDS011;8085;53.472;9.794;2023-01-23T01:57:20;8.83;;;2.40;;
15968;SDS011;8085;53.472;9.794;2023-01-23T01:59:51;5.47;;;2.20;;
15968;SDS011;8085;53.472;9.794;2023-01-23T02:02:22;5.23;;;2.13;;
15968;SDS011;8085;53.472;9.794;2023-01-23T02:04:53;7.30;;;2.40;;
15968;SDS011;8085;53.472;9.794;2023-01-23T02:07:25;5.93;;;2.30;;
15968;SDS011;8085;53.472;9.794;2023-01-23T02:10:04;4.43;;;2.40;;
15968;SDS011;8085;53.472;9.794;2023-01-23T02:12:34;4.17;;;1.83;;
15968;SDS011;8085;53.472;9.794;2023-01-23T02:15:03;3.83;;;2.10;;
15968;SDS011;8085;53.472;9.794;2023-01-23T02:17:32;3.43;;;2.00;;
15968;SDS011;8085;53.472;9.794;2023-01-23T02:20:02;5.63;;;2.30;;
15968;SDS011;8085;53.472;9.794;2023-01-23T02:22:37;6.33;;;1.80;;
15968;SDS011;8085;53.472;9.794;2023-01-23T02:25:11;3.50;;;2.03;;
15968;SDS011;8085;53.472;9.794;2023-01-23T02:27:44;3.80;;;1.93;;
15968;SDS011;8085;53.472;9.794;2023-01-23T02:30:11;3.83;;;1.87;;
15968;SDS011;8085;53.472;9.794;2023-01-23T02:32:40;5.00;;;1.83;;
15968;SDS011;8085;53.472;9.794;2023-01-23T02:35:08;3.23;;;2.10;;
15968;SDS011;8085;53.472;9.794;2023-01-23T02:37:41;3.37;;;1.40;;
15968;SDS011;8085;53.472;9.794;2023-01-23T02:40:11;5.57;;;1.87;;
15968;SDS011;8085;53.472;9.794;2023-01-23T02:42:39;4.53;;;1.83;;
15968;SDS011;8085;53.472;9.794;2023-01-23T02:45:10;2.87;;;1.87;;
15968;SDS011;8085;53.472;9.794;2023-01-23T02:47:37;4.10;;;1.67;;
15968;SDS011;8085;53.472;9.794;2023-01-23T02:50:04;5.63;;;1.93;;
15968;SDS011;8085;53.472;9.794;2023-01-23T02:52:31;4.47;;;1.90;;
15968;SDS011;8085;53.472;9.794;2023-01-23T02:54:58;4.73;;;2.40;;
15968;SDS011;8085;53.472;9.794;2023-01-23T02:57:25;5.77;;;2.00;;
15968;SDS011;8085;53.472;9.794;2023-01-23T02:59:52;3.57;;;2.07;;
15968;SDS011;8085;53.472;9.794;2023-01-23T03:02:37;3.70;;;2.30;;
15968;SDS011;8085;53.472;9.794;2023-01-23T03:05:04;4.50;;;2.27;;
15968;SDS011;8085;53.472;9.794;2023-01-23T03:07:32;4.37;;;2.37;;
15968;SDS011;8085;53.472;9.794;2023-01-23T03:09:59;5.27;;;2.60;;
15968;SDS011;8085;53.472;9.794;2023-01-23T03:12:26;4.40;;;2.60;;
15968;SDS011;8085;53.472;9.794;2023-01-23T03:14:53;6.90;;;2.83;;
15968;SDS011;8085;53.472;9.794;2023-01-23T03:17:20;3.00;;;2.40;;
15968;SDS011;8085;53.472;9.794;2023-01-23T03:19:49;3.93;;;2.20;;
15968;SDS011;8085;53.472;9.794;2023-01-23T03:22:16;3.57;;;2.50;;
15968;SDS011;8085;53.472;9.794;2023-01-23T03:24:42;4.30;;;2.67;;
15968;SDS011;8085;53.472;9.794;2023-01-23T03:27:09;5.23;;;3.03;;
15968;SDS011;8085;53.472;9.794;2023-01-23T03:29:36;5.27;;;2.60;;
15968;SDS011;8085;53.472;9.794;2023-01-23T03:32:20;5.07;;;2.73;;
15968;SDS011;8085;53.472;9.794;2023-01-23T03:34:51;5.20;;;2.60;;
15968;SDS011;8085;53.472;9.794;2023-01-23T03:37:18;3.47;;;2.63;;
15968;SDS011;8085;53.472;9.794;2023-01-23T03:39:45;5.43;;;2.83;;
15968;SDS011;8085;53.472;9.794;2023-01-23T03:42:31;5.23;;;3.10;;
15968;SDS011;8085;53.472;9.794;2023-01-23T03:44:59;6.43;;;3.30;;
15968;SDS011;8085;53.472;9.794;2023-01-23T03:47:26;4.53;;;2.70;;
15968;SDS011;8085;53.472;9.794;2023-01-23T03:49:54;5.27;;;3.07;;
15968;SDS011;8085;53.472;9.794;2023-01-23T03:52:21;5.37;;;2.90;;
15968;SDS011;8085;53.472;9.794;2023-01-23T03:54:48;3.70;;;2.80;;
15968;SDS011;8085;53.472;9.794;2023-01-23T03:57:15;5.80;;;3.00;;
15968;SDS011;8085;53.472;9.794;2023-01-23T03:59:42;6.03;;;3.03;;
15968;SDS011;8085;53.472;9.794;2023-01-23T04:02:09;4.83;;;3.20;;
15968;SDS011;8085;53.472;9.794;2023-01-23T04:04:36;6.37;;;3.63;;
15968;SDS011;8085;53.472;9.794;2023-01-23T04:07:04;5.57;;;3.57;;
15968;SDS011;8085;53.472;9.794;2023-01-23T04:09:32;7.57;;;3.77;;
15968;SDS011;8085;53.472;9.794;2023-01-23T04:11:59;6.33;;;3.50;;
15968;SDS011;8085;53.472;9.794;2023-01-23T04:14:26;6.20;;;3.87;;
15968;SDS011;8085;53.472;9.794;2023-01-23T04:16:54;8.43;;;4.13;;
15968;SDS011;8085;53.472;9.794;2023-01-23T04:19:21;7.20;;;4.00;;
15968;SDS011;8085;53.472;9.794;2023-01-23T04:21:48;9.03;;;4.10;;
15968;SDS011;8085;53.472;9.794;2023-01-23T04:24:16;6.07;;;4.20;;
15968;SDS011;8085;53.472;9.794;2023-01-23T04:26:43;6.17;;;3.93;;
15968;SDS011;8085;53.472;9.794;2023-01-23T04:29:10;8.93;;;4.40;;
15968;SDS011;8085;53.472;9.794;2023-01-23T04:31:37;8.80;;;4.17;;
15968;SDS011;8085;53.472;9.794;2023-01-23T04:34:04;8.90;;;4.70;;
15968;SDS011;8085;53.472;9.794;2023-01-23T04:36:31;7.07;;;4.03;;
15968;SDS011;8085;53.472;9.794;2023-01-23T04:38:57;5.93;;;3.93;;
15968;SDS011;8085;53.472;9.794;2023-01-23T04:41:27;8.70;;;4.83;;
15968;SDS011;8085;53.472;9.794;2023-01-23T04:43:55;7.37;;;4.53;;
15968;SDS011;8085;53.472;9.794;2023-01-23T04:46:42;7.13;;;4.63;;
15968;SDS011;8085;53.472;9.794;2023-01-23T04:49:09;9.30;;;4.60;;
15968;SDS011;8085;53.472;9.794;2023-01-23T04:51:36;7.23;;;4.70;;
15968;SDS011;8085;53.472;9.794;2023-01-23T04:54:03;8.13;;;4.43;;
15968;SDS011;8085;53.472;9.794;2023-01-23T04:56:31;8.40;;;4.87;;
15968;SDS011;8085;53.472;9.794;2023-01-23T04:58:58;7.47;;;4.67;;
15968;SDS011;8085;53.472;9.794;2023-01-23T05:01:25;8.10;;;4.70;;
15968;SDS011;8085;53.472;9.794;2023-01-23T05:03:52;9.30;;;5.20;;
15968;SDS011;8085;53.472;9.794;2023-01-23T05:06:19;6.50;;;4.50;;
15968;SDS011;8085;53.472;9.794;2023-01-23T05:08:46;9.80;;;5.00;;
15968;SDS011;8085;53.472;9.794;2023-01-23T05:11:12;7.33;;;4.83;;
15968;SDS011;8085;53.472;9.794;2023-01-23T05:13:40;8.10;;;4.17;;
15968;SDS011;8085;53.472;9.794;2023-01-23T05:16:07;6.23;;;4.80;;
15968;SDS011;8085;53.472;9.794;2023-01-23T05:18:34;6.50;;;4.47;;
15968;SDS011;8085;53.472;9.794;2023-01-23T05:21:01;7.33;;;4.73;;
15968;SDS011;8085;53.472;9.794;2023-01-23T05:23:28;7.47;;;4.97;;
15968;SDS011;8085;53.472;9.794;2023-01-23T05:25:55;6.63;;;4.70;;
15968;SDS011;8085;53.472;9.794;2023-01-23T05:28:22;8.60;;;4.53;;
15968;SDS011;8085;53.472;9.794;2023-01-23T05:30:50;7.87;;;4.03;;
15968;SDS011;8085;53.472;9.794;2023-01-23T05:33:17;6.70;;;4.57;;
15968;SDS011;8085;53.472;9.794;2023-01-23T05:35:44;7.37;;;4.47;;
15968;SDS011;8085;53.472;9.794;2023-01-23T05:38:11;6.30;;;4.67;;
15968;SDS011;8085;53.472;9.794;2023-01-23T05:40:38;7.60;;;4.67;;
15968;SDS011;8085;53.472;9.794;2023-01-23T05:43:05;6.30;;;4.60;;
15968;SDS011;8085;53.472;9.794;2023-01-23T05:45:32;9.47;;;4.63;;
15968;SDS011;8085;53.472;9.794;2023-01-23T05:48:00;6.23;;;4.23;;
15968;SDS011;8085;53.472;9.794;2023-01-23T05:50:27;6.63;;;4.30;;
15968;SDS011;8085;53.472;9.794;2023-01-23T05:52:54;9.13;;;4.87;;
15968;SDS011;8085;53.472;9.794;2023-01-23T05:55:21;9.27;;;5.37;;
15968;SDS011;8085;53.472;9.794;2023-01-23T05:57:48;7.07;;;4.93;;
15968;SDS011;8085;53.472;9.794;2023-01-23T06:00:15;7.27;;;4.90;;
15968;SDS011;8085;53.472;9.794;2023-01-23T06:02:43;8.90;;;4.67;;
15968;SDS011;8085;53.472;9.794;2023-01-23T06:05:12;6.47;;;5.23;;
15968;SDS011;8085;53.472;9.794;2023-01-23T06:07:39;6.30;;;4.27;;
15968;SDS011;8085;53.472;9.794;2023-01-23T06:10:06;6.70;;;4.37;;
15968;SDS011;8085;53.472;9.794;2023-01-23T06:12:34;6.23;;;4.67;;
15968;SDS011;8085;53.472;9.794;2023-01-23T06:15:01;7.53;;;4.80;;
15968;SDS011;8085;53.472;9.794;2023-01-23T06:17:28;6.67;;;4.90;;
15968;SDS011;8085;53.472;9.794;2023-01-23T06:19:55;7.23;;;4.73;;
15968;SDS011;8085;53.472;9.794;2023-01-23T06:22:24;8.37;;;5.03;;
15968;SDS011;8085;53.472;9.794;2023-01-23T06:24:50;7.93;;;5.20;;
15968;SDS011;8085;53.472;9.794;2023-01-23T06:27:17;6.97;;;4.60;;
15968;SDS011;8085;53.472;9.794;2023-01-23T06:29:44;7.33;;;4.30;;
15968;SDS011;8085;53.472;9.794;2023-01-23T06:32:11;8.80;;;4.97;;
15968;SDS011;8085;53.472;9.794;2023-01-23T06:34:38;7.73;;;4.40;;
15968;SDS011;8085;53.472;9.794;2023-01-23T06:37:05;5.50;;;4.33;;
15968;SDS011;8085;53.472;9.794;2023-01-23T06:39:33;5.50;;;4.10;;
15968;SDS011;8085;53.472;9.794;2023-01-23T06:42:00;7.37;;;4.33;;
15968;SDS011;8085;53.472;9.794;2023-01-23T06:44:26;5.07;;;3.90;;
15968;SDS011;8085;53.472;9.794;2023-01-23T06:46:53;6.57;;;4.07;;
15968;SDS011;8085;53.472;9.794;2023-01-23T06:49:20;6.70;;;4.13;;
15968;SDS011;8085;53.472;9.794;2023-01-23T06:51:47;6.27;;;4.17;;
15968;SDS011;8085;53.472;9.794;2023-01-23T06:54:14;6.13;;;4.00;;
15968;SDS011;8085;53.472;9.794;2023-01-23T06:56:42;6.77;;;5.03;;
15968;SDS011;8085;53.472;9.794;2023-01-23T06:59:09;7.67;;;5.10;;
15968;SDS011;8085;53.472;9.794;2023-01-23T07:01:36;6.13;;;5.00;;
15968;SDS011;8085;53.472;9.794;2023-01-23T07:04:03;7.97;;;5.03;;
15968;SDS011;8085;53.472;9.794;2023-01-23T07:06:29;6.93;;;4.27;;
15968;SDS011;8085;53.472;9.794;2023-01-23T07:08:56;7.30;;;4.80;;
15968;SDS011;8085;53.472;9.794;2023-01-23T07:11:23;5.87;;;3.93;;
15968;SDS011;8085;53.472;9.794;2023-01-23T07:13:52;8.97;;;4.63;;
15968;SDS011;8085;53.472;9.794;2023-01-23T07:16:19;6.60;;;4.80;;
15968;SDS011;8085;53.472;9.794;2023-01-23T07:18:46;9.70;;;5.33;;
15968;SDS011;8085;53.472;9.794;2023-01-23T07:21:12;5.90;;;4.60;;
15968;SDS011;8085;53.472;9.794;2023-01-23T07:23:39;9.77;;;5.00;;
15968;SDS011;8085;53.472;9.794;2023-01-23T07:26:06;6.90;;;5.10;;
15968;SDS011;8085;53.472;9.794;2023-01-23T07:28:34;7.40;;;4.90;;
15968;SDS011;8085;53.472;9.794;2023-01-23T07:31:03;7.73;;;5.10;;
15968;SDS011;8085;53.472;9.794;2023-01-23T07:33:30;7.87;;;5.03;;
15968;SDS011;8085;53.472;9.794;2023-01-23T07:35:57;8.67;;;5.07;;
15968;SDS011;8085;53.472;9.794;2023-01-23T07:38:24;7.83;;;4.80;;
15968;SDS011;8085;53.472;9.794;2023-01-23T07:40:51;11.07;;;5.60;;
15968;SDS011;8085;53.472;9.794;2023-01-23T07:43:22;7.33;;;4.97;;
15968;SDS011;8085;53.472;9.794;2023-01-23T07:45:49;9.07;;;5.70;;
15968;SDS011;8085;53.472;9.794;2023-01-23T07:48:17;8.00;;;5.20;;
15968;SDS011;8085;53.472;9.794;2023-01-23T07:50:44;8.50;;;5.00;;
15968;SDS011;8085;53.472;9.794;2023-01-23T07:53:11;9.03;;;4.80;;
15968;SDS011;8085;53.472;9.794;2023-01-23T07:55:37;7.27;;;5.27;;
15968;SDS011;8085;53.472;9.794;2023-01-23T07:58:04;8.93;;;5.30;;
15968;SDS011;8085;53.472;9.794;2023-01-23T08:00:31;10.50;;;6.30;;
15968;SDS011;8085;53.472;9.794;2023-01-23T08:02:58;8.27;;;5.77;;
15968;SDS011;8085;53.472;9.794;2023-01-23T08:05:26;7.37;;;5.40;;
15968;SDS011;8085;53.472;9.794;2023-01-23T08:07:53;7.73;;;5.00;;
15968;SDS011;8085;53.472;9.794;2023-01-23T08:10:19;9.07;;;5.37;;
15968;SDS011;8085;53.472;9.794;2023-01-23T08:12:46;9.60;;;5.40;;
15968;SDS011;8085;53.472;9.794;2023-01-23T08:15:13;9.43;;;5.30;;
15968;SDS011;8085;53.472;9.794;2023-01-23T08:17:40;8.13;;;5.00;;
15968;SDS011;8085;53.472;9.794;2023-01-23T08:20:07;9.30;;;6.17;;
15968;SDS011;8085;53.472;9.794;2023-01-23T08:22:36;8.57;;;5.47;;
15968;SDS011;8085;53.472;9.794;2023-01-23T08:25:05;10.13;;;5.63;;
15968;SDS011;8085;53.472;9.794;2023-01-23T08:27:33;10.00;;;5.67;;
15968;SDS011;8085;53.472;9.794;2023-01-23T08:30:00;10.07;;;6.43;;
15968;SDS011;8085;53.472;9.794;2023-01-23T08:32:27;10.00;;;5.43;;
15968;SDS011;8085;53.472;9.794;2023-01-23T08:34:54;7.97;;;5.90;;
15968;SDS011;8085;53.472;9.794;2023-01-23T08:37:21;8.03;;;6.23;;
15968;SDS011;8085;53.472;9.794;2023-01-23T08:39:49;9.77;;;5.83;;
15968;SDS011;8085;53.472;9.794;2023-01-23T08:42:16;11.13;;;6.03;;
15968;SDS011;8085;53.472;9.794;2023-01-23T08:44:43;10.17;;;6.60;;
15968;SDS011;8085;53.472;9.794;2023-01-23T08:47:09;10.73;;;6.13;;
15968;SDS011;8085;53.472;9.794;2023-01-23T08:49:36;10.07;;;5.87;;
15968;SDS011;8085;53.472;9.794;2023-01-23T08:52:03;9.90;;;6.67;;
15968;SDS011;8085;53.472;9.794;2023-01-23T08:54:30;9.07;;;6.07;;
15968;SDS011;8085;53.472;9.794;2023-01-23T08:56:58;9.27;;;5.80;;
15968;SDS011;8085;53.472;9.794;2023-01-23T08:59:25;7.73;;;5.60;;
15968;SDS011;8085;53.472;9.794;2023-01-23T09:01:53;9.43;;;6.70;;
15968;SDS011;8085;53.472;9.794;2023-01-23T09:04:20;11.33;;;6.40;;
15968;SDS011;8085;53.472;9.794;2023-01-23T09:06:47;11.87;;;6.67;;
15968;SDS011;8085;53.472;9.794;2023-01-23T09:09:14;10.00;;;6.83;;
15968;SDS011;8085;53.472;9.794;2023-01-23T09:11:41;11.20;;;6.23;;
15968;SDS011;8085;53.472;9.794;2023-01-23T09:14:09;13.00;;;6.17;;
15968;SDS011;8085;53.472;9.794;2023-01-23T09:16:35;10.87;;;7.00;;
15968;SDS011;8085;53.472;9.794;2023-01-23T09:19:04;10.17;;;7.00;;
15968;SDS011;8085;53.472;9.794;2023-01-23T09:21:32;15.00;;;9.00;;
15968;SDS011;8085;53.472;9.794;2023-01-23T09:23:58;10.73;;;7.93;;
15968;SDS011;8085;53.472;9.794;2023-01-23T09:26:25;12.33;;;7.90;;
15968;SDS011;8085;53.472;9.794;2023-01-23T09:28:53;11.37;;;8.03;;
15968;SDS011;8085;53.472;9.794;2023-01-23T09:31:21;11.03;;;8.00;;
15968;SDS011;8085;53.472;9.794;2023-01-23T09:33:48;12.80;;;8.00;;
15968;SDS011;8085;53.472;9.794;2023-01-23T09:36:15;10.90;;;8.13;;
15968;SDS011;8085;53.472;9.794;2023-01-23T09:38:42;14.37;;;8.47;;
15968;SDS011;8085;53.472;9.794;2023-01-23T09:41:10;11.50;;;8.50;;
15968;SDS011;8085;53.472;9.794;2023-01-23T09:43:43;13.43;;;8.33;;
15968;SDS011;8085;53.472;9.794;2023-01-23T09:46:18;13.57;;;8.00;;
15968;SDS011;8085;53.472;9.794;2023-01-23T09:48:50;13.03;;;8.20;;
15968;SDS011;8085;53.472;9.794;2023-01-23T09:51:23;13.07;;;8.20;;
15968;SDS011;8085;53.472;9.794;2023-01-23T09:53:54;11.87;;;8.13;;
15968;SDS011;8085;53.472;9.794;2023-01-23T09:56:28;13.03;;;8.23;;
15968;SDS011;8085;53.472;9.794;2023-01-23T09:58:58;12.73;;;8.17;;
15968;SDS011;8085;53.472;9.794;2023-01-23T10:01:30;14.93;;;8.67;;
15968;SDS011;8085;53.472;9.794;2023-01-23T10:03:57;13.40;;;9.13;;
15968;SDS011;8085;53.472;9.794;2023-01-23T10:06:26;13.93;;;8.90;;
15968;SDS011;8085;53.472;9.794;2023-01-23T10:09:02;13.07;;;8.03;;
15968;SDS011;8085;53.472;9.794;2023-01-23T10:11:51;11.87;;;8.57;;
15968;SDS011;8085;53.472;9.794;2023-01-23T10:14:34;15.33;;;9.33;;
15968;SDS011;8085;53.472;9.794;2023-01-23T10:17:16;15.97;;;8.77;;
15968;SDS011;8085;53.472;9.794;2023-01-23T10:19:54;16.13;;;8.70;;
15968;SDS011;8085;53.472;9.794;2023-01-23T10:22:38;15.10;;;9.03;;
15968;SDS011;8085;53.472;9.794;2023-01-23T10:25:11;12.40;;;7.60;;
15968;SDS011;8085;53.472;9.794;2023-01-23T10:27:43;16.30;;;8.50;;
15968;SDS011;8085;53.472;9.794;2023-01-23T10:30:19;14.33;;;8.63;;
15968;SDS011;8085;53.472;9.794;2023-01-23T10:32:51;14.23;;;9.10;;
15968;SDS011;8085;53.472;9.794;2023-01-23T10:35:24;15.90;;;9.00;;
15968;SDS011;8085;53.472;9.794;2023-01-23T10:37:59;18.03;;;10.00;;
15968;SDS011;8085;53.472;9.794;2023-01-23T10:40:27;14.20;;;8.90;;
15968;SDS011;8085;53.472;9.794;2023-01-23T10:43:12;18.23;;;9.53;;
15968;SDS011;8085;53.472;9.794;2023-01-23T10:45:40;15.50;;;9.50;;
15968;SDS011;8085;53.472;9.794;2023-01-23T10:48:37;15.23;;;9.20;;
15968;SDS011;8085;53.472;9.794;2023-01-23T10:54:04;16.27;;;9.27;;
15968;SDS011;8085;53.472;9.794;2023-01-23T10:56:36;15.57;;;9.53;;
15968;SDS011;8085;53.472;9.794;2023-01-23T10:59:12;13.33;;;9.20;;
15968;SDS011;8085;53.472;9.794;2023-01-23T11:01:53;15.47;;;8.80;;
15968;SDS011;8085;53.472;9.794;2023-01-23T11:04:44;15.77;;;9.83;;
15968;SDS011;8085;53.472;9.794;2023-01-23T11:07:13;15.87;;;8.87;;
15968;SDS011;8085;53.472;9.794;2023-01-23T11:09:45;16.17;;;9.27;;
15968;SDS011;8085;53.472;9.794;2023-01-23T11:12:15;18.50;;;9.27;;
15968;SDS011;8085;53.472;9.794;2023-01-23T11:14:44;17.83;;;9.40;;
15968;SDS011;8085;53.472;9.794;2023-01-23T11:17:17;13.80;;;8.73;;
15968;SDS011;8085;53.472;9.794;2023-01-23T11:19:48;18.27;;;9.33;;
15968;SDS011;8085;53.472;9.794;2023-01-23T11:22:31;19.07;;;9.37;;
15968;SDS011;8085;53.472;9.794;2023-01-23T11:25:02;18.17;;;9.50;;
15968;SDS011;8085;53.472;9.794;2023-01-23T11:27:57;16.10;;;9.53;;
15968;SDS011;8085;53.472;9.794;2023-01-23T11:30:36;19.53;;;9.93;;
15968;SDS011;8085;53.472;9.794;2023-01-23T11:33:13;17.57;;;9.07;;
15968;SDS011;8085;53.472;9.794;2023-01-23T11:35:54;17.07;;;9.23;;
15968;SDS011;8085;53.472;9.794;2023-01-23T11:38:30;16.17;;;9.27;;
15968;SDS011;8085;53.472;9.794;2023-01-23T11:41:02;19.53;;;9.57;;
15968;SDS011;8085;53.472;9.794;2023-01-23T11:43:30;17.67;;;9.80;;
15968;SDS011;8085;53.472;9.794;2023-01-23T11:46:00;16.97;;;9.57;;
15968;SDS011;8085;53.472;9.794;2023-01-23T11:48:53;16.13;;;8.83;;
15968;SDS011;8085;53.472;9.794;2023-01-23T11:51:32;17.13;;;8.97;;
15968;SDS011;8085;53.472;9.794;2023-01-23T11:54:04;16.10;;;9.43;;
15968;SDS011;8085;53.472;9.794;2023-01-23T11:59:52;18.80;;;9.27;;
15968;SDS011;8085;53.472;9.794;2023-01-23T12:02:46;18.27;;;9.67;;
15968;SDS011;8085;53.472;9.794;2023-01-23T12:05:44;15.50;;;8.77;;
15968;SDS011;8085;53.472;9.794;2023-01-23T12:08:32;16.77;;;8.93;;
15968;SDS011;8085;53.472;9.794;2023-01-23T12:11:08;19.37;;;9.23;;
15968;SDS011;8085;53.472;9.794;2023-01-23T12:13:53;18.97;;;9.77;;
15968;SDS011;8085;53.472;9.794;2023-01-23T12:16:27;17.73;;;11.33;;
15968;SDS011;8085;53.472;9.794;2023-01-23T12:19:12;20.20;;;10.27;;
15968;SDS011;8085;53.472;9.794;2023-01-23T12:21:52;18.77;;;11.07;;
15968;SDS011;8085;53.472;9.794;2023-01-23T12:24:31;18.53;;;10.40;;
15968;SDS011;8085;53.472;9.794;2023-01-23T12:27:10;21.57;;;12.40;;
15968;SDS011;8085;53.472;9.794;2023-01-23T12:29:48;19.03;;;11.03;;
15968;SDS011;8085;53.472;9.794;2023-01-23T12:32:41;19.10;;;10.30;;
15968;SDS011;8085;53.472;9.794;2023-01-23T12:35:19;16.27;;;9.70;;
15968;SDS011;8085;53.472;9.794;2023-01-23T12:38:05;22.87;;;11.17;;
15968;SDS011;8085;53.472;9.794;2023-01-23T12:40:40;26.57;;;11.23;;
15968;SDS011;8085;53.472;9.794;2023-01-23T12:43:13;18.53;;;10.47;;
15968;SDS011;8085;53.472;9.794;2023-01-23T12:45:44;23.73;;;11.40;;
15968;SDS011;8085;53.472;9.794;2023-01-23T12:48:15;17.60;;;11.30;;
15968;SDS011;8085;53.472;9.794;2023-01-23T12:50:49;16.07;;;10.67;;
15968;SDS011;8085;53.472;9.794;2023-01-23T12:53:20;18.40;;;11.00;;
15968;SDS011;8085;53.472;9.794;2023-01-23T12:55:56;21.30;;;10.40;;
15968;SDS011;8085;53.472;9.794;2023-01-23T12:58:27;23.00;;;10.30;;
15968;SDS011;8085;53.472;9.794;2023-01-23T13:01:00;15.83;;;10.40;;
15968;SDS011;8085;53.472;9.794;2023-01-23T13:03:41;18.90;;;10.23;;
15968;SDS011;8085;53.472;9.794;2023-01-23T13:06:33;20.67;;;12.23;;
15968;SDS011;8085;53.472;9.794;2023-01-23T13:09:13;19.27;;;10.80;;
15968;SDS011;8085;53.472;9.794;2023-01-23T13:11:54;22.23;;;11.17;;
15968;SDS011;8085;53.472;9.794;2023-01-23T13:14:36;21.27;;;11.57;;
15968;SDS011;8085;53.472;9.794;2023-01-23T13:17:25;17.63;;;11.87;;
15968;SDS011;8085;53.472;9.794;2023-01-23T13:20:06;19.33;;;12.43;;
15968;SDS011;8085;53.472;9.794;2023-01-23T13:23:19;18.63;;;10.97;;
15968;SDS011;8085;53.472;9.794;2023-01-23T13:25:48;20.03;;;11.40;;
15968;SDS011;8085;53.472;9.794;2023-01-23T13:28:27;20.13;;;11.77;;
15968;SDS011;8085;53.472;9.794;2023-01-23T13:30:59;20.27;;;10.67;;
15968;SDS011;8085;53.472;9.794;2023-01-23T13:36:28;21.10;;;11.70;;
15968;SDS011;8085;53.472;9.794;2023-01-23T13:41:46;22.30;;;10.77;;
15968;SDS011;8085;53.472;9.794;2023-01-23T13:44:17;19.77;;;10.97;;
15968;SDS011;8085;53.472;9.794;2023-01-23T13:46:52;20.90;;;11.33;;
15968;SDS011;8085;53.472;9.794;2023-01-23T13:49:28;17.50;;;10.63;;
15968;SDS011;8085;53.472;9.794;2023-01-23T13:52:20;17.73;;;11.13;;
15968;SDS011;8085;53.472;9.794;2023-01-23T13:55:13;17.00;;;9.90;;
15968;SDS011;8085;53.472;9.794;2023-01-23T13:58:00;15.67;;;10.07;;
15968;SDS011;8085;53.472;9.794;2023-01-23T14:00:29;19.60;;;11.27;;
15968;SDS011;8085;53.472;9.794;2023-01-23T14:02:58;20.93;;;12.47;;
15968;SDS011;8085;53.472;9.794;2023-01-23T14:06:03;21.37;;;13.00;;
15968;SDS011;8085;53.472;9.794;2023-01-23T14:08:31;17.50;;;10.53;;
15968;SDS011;8085;53.472;9.794;2023-01-23T14:10:58;20.43;;;12.17;;
15968;SDS011;8085;53.472;9.794;2023-01-23T14:13:26;21.97;;;12.43;;
15968;SDS011;8085;53.472;9.794;2023-01-23T14:15:54;16.67;;;11.20;;
15968;SDS011;8085;53.472;9.794;2023-01-23T14:18:37;20.80;;;10.97;;
15968;SDS011;8085;53.472;9.794;2023-01-23T14:21:15;23.63;;;13.30;;
15968;SDS011;8085;53.472;9.794;2023-01-23T14:23:47;21.20;;;11.60;;
15968;SDS011;8085;53.472;9.794;2023-01-23T14:26:16;28.10;;;14.43;;
15968;SDS011;8085;53.472;9.794;2023-01-23T14:28:55;26.47;;;14.60;;
15968;SDS011;8085;53.472;9.794;2023-01-23T14:31:27;20.77;;;13.47;;
15968;SDS011;8085;53.472;9.794;2023-01-23T14:33:58;20.17;;;12.90;;
15968;SDS011;8085;53.472;9.794;2023-01-23T14:36:27;22.13;;;12.90;;
15968;SDS011;8085;53.472;9.794;2023-01-23T14:38:55;26.63;;;14.95;;
15968;SDS011;8085;53.472;9.794;2023-01-23T14:41:24;21.63;;;12.30;;
15968;SDS011;8085;53.472;9.794;2023-01-23T14:43:55;21.00;;;12.10;;
15968;SDS011;8085;53.472;9.794;2023-01-23T14:46:31;23.37;;;12.10;;
15968;SDS011;8085;53.472;9.794;2023-01-23T14:49:04;21.83;;;12.07;;
15968;SDS011;8085;53.472;9.794;2023-01-23T14:51:34;21.03;;;11.60;;
15968;SDS011;8085;53.472;9.794;2023-01-23T14:54:02;19.93;;;12.20;;
15968;SDS011;8085;53.472;9.794;2023-01-23T14:56:31;24.60;;;12.47;;
15968;SDS011;8085;53.472;9.794;2023-01-23T14:59:00;24.40;;;13.90;;
15968;SDS011;8085;53.472;9.794;2023-01-23T15:01:31;21.93;;;13.70;;
15968;SDS011;8085;53.472;9.794;2023-01-23T15:04:00;23.10;;;12.20;;
15968;SDS011;8085;53.472;9.794;2023-01-23T15:06:28;24.00;;;13.10;;
15968;SDS011;8085;53.472;9.794;2023-01-23T15:09:05;22.93;;;13.37;;
15968;SDS011;8085;53.472;9.794;2023-01-23T15:11:37;25.77;;;15.20;;
15968;SDS011;8085;53.472;9.794;2023-01-23T15:14:04;27.53;;;13.23;;
15968;SDS011;8085;53.472;9.794;2023-01-23T15:16:48;29.37;;;15.23;;
15968;SDS011;8085;53.472;9.794;2023-01-23T15:19:17;21.77;;;12.73;;
15968;SDS011;8085;53.472;9.794;2023-01-23T15:21:47;21.37;;;12.57;;
15968;SDS011;8085;53.472;9.794;2023-01-23T15:24:19;30.63;;;15.30;;
15968;SDS011;8085;53.472;9.794;2023-01-23T15:26:55;27.67;;;14.77;;